sensor_id;sensor_type;location;lat;lon;timestamp;pressure;altitude;pressure_sealevel;temperature;humidity
64632;BME280;58358;50.936;0.246;2022-07-22T00:02:07;101617.80;;;16.12;58.82
64632;BME280;58358;50.936;0.246;2022-07-22T00:04:33;101616.77;;;15.82;58.84
64632;BME280;58358;50.936;0.246;2022-07-22T00:06:58;101618.44;;;16.26;57.95
64632;BME280;58358;50.936;0.246;2022-07-22T00:09:24;101617.69;;;15.66;58.61
64632;BME280;58358;50.936;0.246;2022-07-22T00:11:50;101616.29;;;15.54;58.06
64632;BME280;58358;50.936;0.246;2022-07-22T00:14:16;101614.04;;;15.67;58.45
64632;BME280;58358;50.936;0.246;2022-07-22T00:16:41;101612.56;;;15.51;58.92
64632;BME280;58358;50.936;0.246;2022-07-22T00:19:07;101610.20;;;15.36;59.55
64632;BME280;58358;50.936;0.246;2022-07-22T00:21:32;101609.82;;;16.45;56.93
64632;BME280;58358;50.936;0.246;2022-07-22T00:23:58;101608.44;;;15.35;59.85
64632;BME280;58358;50.936;0.246;2022-07-22T00:26:24;101609.60;;;14.88;60.68
64632;BME280;58358;50.936;0.246;2022-07-22T00:28:49;101607.15;;;14.63;62.07
64632;BME280;58358;50.936;0.246;2022-07-22T00:31:15;101604.21;;;15.30;60.52
64632;BME280;58358;50.936;0.246;2022-07-22T00:33:41;101601.56;;;15.48;59.67
64632;BME280;58358;50.936;0.246;2022-07-22T00:36:07;101598.50;;;15.50;59.38
64632;BME280;58358;50.936;0.246;2022-07-22T00:38:32;101600.14;;;15.64;59.14
64632;BME280;58358;50.936;0.246;2022-07-22T00:40:57;101597.34;;;15.40;59.53
64632;BME280;58358;50.936;0.246;2022-07-22T00:43:23;101593.56;;;15.41;60.03
64632;BME280;58358;50.936;0.246;2022-07-22T00:45:49;101595.02;;;15.41;60.74
64632;BME280;58358;50.936;0.246;2022-07-22T00:48:15;101591.56;;;15.68;59.62
64632;BME280;58358;50.936;0.246;2022-07-22T00:50:40;101587.00;;;15.75;58.95
64632;BME280;58358;50.936;0.246;2022-07-22T00:53:07;101589.52;;;15.69;59.10
64632;BME280;58358;50.936;0.246;2022-07-22T00:55:33;101589.29;;;17.09;54.98
64632;BME280;58358;50.936;0.246;2022-07-22T00:57:58;101587.02;;;16.30;57.17
64632;BME280;58358;50.936;0.246;2022-07-22T01:00:23;101581.21;;;14.97;59.84
64632;BME280;58358;50.936;0.246;2022-07-22T01:02:49;101583.62;;;16.25;57.37
64632;BME280;58358;50.936;0.246;2022-07-22T01:05:15;101573.83;;;15.82;58.04
64632;BME280;58358;50.936;0.246;2022-07-22T01:07:40;101571.64;;;15.82;58.08
64632;BME280;58358;50.936;0.246;2022-07-22T01:10:07;101569.32;;;15.18;59.32
64632;BME280;58358;50.936;0.246;2022-07-22T01:12:32;101571.70;;;15.47;58.94
64632;BME280;58358;50.936;0.246;2022-07-22T01:14:57;101570.68;;;15.77;58.65
64632;BME280;58358;50.936;0.246;2022-07-22T01:17:23;101572.05;;;15.10;60.14
64632;BME280;58358;50.936;0.246;2022-07-22T01:19:50;101570.30;;;15.22;59.66
64632;BME280;58358;50.936;0.246;2022-07-22T01:22:14;101572.03;;;15.74;57.20
64632;BME280;58358;50.936;0.246;2022-07-22T01:24:40;101574.35;;;15.53;58.87
64632;BME280;58358;50.936;0.246;2022-07-22T01:27:06;101572.21;;;15.05;59.28
64632;BME280;58358;50.936;0.246;2022-07-22T01:29:32;101577.90;;;16.29;56.95
64632;BME280;58358;50.936;0.246;2022-07-22T01:31:57;101573.83;;;15.78;58.24
64632;BME280;58358;50.936;0.246;2022-07-22T01:34:23;101574.17;;;15.63;58.71
64632;BME280;58358;50.936;0.246;2022-07-22T01:36:49;101572.13;;;15.39;59.69
64632;BME280;58358;50.936;0.246;2022-07-22T01:39:15;101574.20;;;15.88;57.91
64632;BME280;58358;50.936;0.246;2022-07-22T01:41:40;101579.43;;;16.52;56.19
64632;BME280;58358;50.936;0.246;2022-07-22T01:44:06;101577.24;;;15.58;58.05
64632;BME280;58358;50.936;0.246;2022-07-22T01:46:32;101580.87;;;16.05;57.36
64632;BME280;58358;50.936;0.246;2022-07-22T01:48:57;101573.78;;;15.52;58.52
64632;BME280;58358;50.936;0.246;2022-07-22T01:51:23;101577.44;;;15.94;57.69
64632;BME280;58358;50.936;0.246;2022-07-22T01:53:49;101575.48;;;16.23;56.24
64632;BME280;58358;50.936;0.246;2022-07-22T01:56:15;101572.96;;;15.63;58.27
64632;BME280;58358;50.936;0.246;2022-07-22T01:58:40;101570.44;;;15.49;58.60
64632;BME280;58358;50.936;0.246;2022-07-22T02:01:07;101571.96;;;15.87;56.47
64632;BME280;58358;50.936;0.246;2022-07-22T02:03:32;101568.98;;;16.16;56.95
64632;BME280;58358;50.936;0.246;2022-07-22T02:05:57;101568.12;;;16.00;57.62
64632;BME280;58358;50.936;0.246;2022-07-22T02:08:23;101570.57;;;16.09;57.48
64632;BME280;58358;50.936;0.246;2022-07-22T02:10:49;101567.46;;;15.27;59.05
64632;BME280;58358;50.936;0.246;2022-07-22T02:13:14;101567.18;;;15.30;59.30
64632;BME280;58358;50.936;0.246;2022-07-22T02:15:40;101566.95;;;15.38;60.14
64632;BME280;58358;50.936;0.246;2022-07-22T02:18:11;101566.60;;;14.48;61.87
64632;BME280;58358;50.936;0.246;2022-07-22T02:20:32;101566.45;;;15.22;59.48
64632;BME280;58358;50.936;0.246;2022-07-22T02:22:57;101565.17;;;14.97;60.76
64632;BME280;58358;50.936;0.246;2022-07-22T02:25:23;101568.80;;;14.53;62.29
64632;BME280;58358;50.936;0.246;2022-07-22T02:27:49;101569.53;;;15.03;61.34
64632;BME280;58358;50.936;0.246;2022-07-22T02:30:15;101568.01;;;15.13;60.13
64632;BME280;58358;50.936;0.246;2022-07-22T02:32:40;101566.14;;;15.37;60.52
64632;BME280;58358;50.936;0.246;2022-07-22T02:35:07;101563.79;;;15.71;59.33
64632;BME280;58358;50.936;0.246;2022-07-22T02:37:32;101564.27;;;15.18;60.50
64632;BME280;58358;50.936;0.246;2022-07-22T02:39:58;101563.13;;;15.65;59.98
64632;BME280;58358;50.936;0.246;2022-07-22T02:42:23;101566.76;;;15.25;60.23
64632;BME280;58358;50.936;0.246;2022-07-22T02:44:49;101571.32;;;16.03;58.07
64632;BME280;58358;50.936;0.246;2022-07-22T02:47:15;101569.63;;;15.94;57.30
64632;BME280;58358;50.936;0.246;2022-07-22T02:49:40;101563.67;;;15.47;59.44
64632;BME280;58358;50.936;0.246;2022-07-22T02:52:07;101561.98;;;15.05;59.85
64632;BME280;58358;50.936;0.246;2022-07-22T02:54:32;101563.47;;;15.31;60.28
64632;BME280;58358;50.936;0.246;2022-07-22T02:56:57;101561.95;;;15.55;58.60
64632;BME280;58358;50.936;0.246;2022-07-22T02:59:23;101562.48;;;15.60;58.43
64632;BME280;58358;50.936;0.246;2022-07-22T03:01:49;101564.35;;;15.42;59.87
64632;BME280;58358;50.936;0.246;2022-07-22T03:04:15;101563.81;;;15.21;59.22
64632;BME280;58358;50.936;0.246;2022-07-22T03:06:40;101562.41;;;15.55;58.50
64632;BME280;58358;50.936;0.246;2022-07-22T03:09:07;101560.12;;;15.30;58.83
64632;BME280;58358;50.936;0.246;2022-07-22T03:11:32;101554.35;;;15.23;58.28
64632;BME280;58358;50.936;0.246;2022-07-22T03:13:57;101556.17;;;16.09;57.11
64632;BME280;58358;50.936;0.246;2022-07-22T03:16:23;101550.51;;;15.29;58.74
64632;BME280;58358;50.936;0.246;2022-07-22T03:18:49;101548.00;;;15.76;57.71
64632;BME280;58358;50.936;0.246;2022-07-22T03:21:15;101545.82;;;14.53;60.65
64632;BME280;58358;50.936;0.246;2022-07-22T03:23:40;101543.73;;;14.78;60.35
64632;BME280;58358;50.936;0.246;2022-07-22T03:26:06;101545.67;;;14.19;62.79
64632;BME280;58358;50.936;0.246;2022-07-22T03:28:32;101540.72;;;14.72;60.18
64632;BME280;58358;50.936;0.246;2022-07-22T03:30:57;101540.82;;;15.05;60.13
64632;BME280;58358;50.936;0.246;2022-07-22T03:33:23;101546.74;;;14.73;60.95
64632;BME280;58358;50.936;0.246;2022-07-22T03:35:49;101548.23;;;14.15;62.64
64632;BME280;58358;50.936;0.246;2022-07-22T03:38:15;101546.09;;;14.03;62.25
64632;BME280;58358;50.936;0.246;2022-07-22T03:40:40;101543.60;;;14.16;62.30
64632;BME280;58358;50.936;0.246;2022-07-22T03:43:06;101544.15;;;15.27;60.32
64632;BME280;58358;50.936;0.246;2022-07-22T03:45:31;101539.40;;;14.01;62.95
64632;BME280;58358;50.936;0.246;2022-07-22T03:47:57;101543.08;;;13.67;64.71
64632;BME280;58358;50.936;0.246;2022-07-22T03:50:23;101543.19;;;14.12;63.87
64632;BME280;58358;50.936;0.246;2022-07-22T03:52:49;101541.33;;;14.30;62.40
64632;BME280;58358;50.936;0.246;2022-07-22T03:55:14;101539.52;;;14.09;62.93
64632;BME280;58358;50.936;0.246;2022-07-22T03:57:40;101533.47;;;14.24;62.75
64632;BME280;58358;50.936;0.246;2022-07-22T04:00:07;101530.29;;;14.41;62.34
64632;BME280;58358;50.936;0.246;2022-07-22T04:02:31;101531.80;;;14.06;62.92
64632;BME280;58358;50.936;0.246;2022-07-22T04:04:57;101529.89;;;14.60;61.51
64632;BME280;58358;50.936;0.246;2022-07-22T04:07:23;101531.05;;;14.59;61.60
64632;BME280;58358;50.936;0.246;2022-07-22T04:09:49;101527.42;;;14.93;60.74
64632;BME280;58358;50.936;0.246;2022-07-22T04:12:14;101530.77;;;14.31;61.49
64632;BME280;58358;50.936;0.246;2022-07-22T04:14:40;101527.02;;;14.69;61.65
64632;BME280;58358;50.936;0.246;2022-07-22T04:17:06;101523.35;;;14.49;60.81
64632;BME280;58358;50.936;0.246;2022-07-22T04:19:31;101521.74;;;14.23;61.06
64632;BME280;58358;50.936;0.246;2022-07-22T04:21:57;101514.79;;;15.53;58.70
64632;BME280;58358;50.936;0.246;2022-07-22T04:24:22;101511.49;;;14.47;61.43
64632;BME280;58358;50.936;0.246;2022-07-22T04:26:48;101509.92;;;14.23;61.91
64632;BME280;58358;50.936;0.246;2022-07-22T04:29:14;101507.67;;;14.59;60.79
64632;BME280;58358;50.936;0.246;2022-07-22T04:31:39;101508.51;;;14.73;60.72
64632;BME280;58358;50.936;0.246;2022-07-22T04:34:06;101512.03;;;14.59;61.37
64632;BME280;58358;50.936;0.246;2022-07-22T04:36:31;101513.09;;;14.81;60.77
64632;BME280;58358;50.936;0.246;2022-07-22T04:38:57;101512.78;;;14.50;61.98
64632;BME280;58358;50.936;0.246;2022-07-22T04:41:22;101513.36;;;14.48;61.65
64632;BME280;58358;50.936;0.246;2022-07-22T04:43:48;101510.25;;;14.85;60.67
64632;BME280;58358;50.936;0.246;2022-07-22T04:46:14;101508.59;;;15.06;59.97
64632;BME280;58358;50.936;0.246;2022-07-22T04:48:40;101507.35;;;15.83;58.59
64632;BME280;58358;50.936;0.246;2022-07-22T04:51:06;101507.38;;;15.37;59.41
64632;BME280;58358;50.936;0.246;2022-07-22T04:53:31;101501.53;;;14.97;60.38
64632;BME280;58358;50.936;0.246;2022-07-22T04:55:57;101500.86;;;14.79;60.18
64632;BME280;58358;50.936;0.246;2022-07-22T04:58:23;101497.08;;;14.66;60.39
64632;BME280;58358;50.936;0.246;2022-07-22T05:00:48;101490.78;;;15.24;59.10
64632;BME280;58358;50.936;0.246;2022-07-22T05:03:14;101489.33;;;15.48;58.35
64632;BME280;58358;50.936;0.246;2022-07-22T05:05:40;101487.37;;;15.92;57.76
64632;BME280;58358;50.936;0.246;2022-07-22T05:08:06;101483.28;;;16.56;56.08
64632;BME280;58358;50.936;0.246;2022-07-22T05:10:31;101484.09;;;15.63;57.40
64632;BME280;58358;50.936;0.246;2022-07-22T05:12:57;101482.53;;;15.25;58.39
64632;BME280;58358;50.936;0.246;2022-07-22T05:15:23;101475.00;;;14.74;60.82
64632;BME280;58358;50.936;0.246;2022-07-22T05:17:48;101471.66;;;15.26;59.41
64632;BME280;58358;50.936;0.246;2022-07-22T05:20:15;101469.21;;;14.41;62.18
64632;BME280;58358;50.936;0.246;2022-07-22T05:22:40;101469.19;;;14.25;61.93
64632;BME280;58358;50.936;0.246;2022-07-22T05:25:06;101470.95;;;15.37;59.89
64632;BME280;58358;50.936;0.246;2022-07-22T05:27:31;101472.08;;;15.46;58.67
64632;BME280;58358;50.936;0.246;2022-07-22T05:29:57;101470.23;;;14.89;61.05
64632;BME280;58358;50.936;0.246;2022-07-22T05:32:23;101472.86;;;14.98;61.02
64632;BME280;58358;50.936;0.246;2022-07-22T05:34:48;101475.98;;;15.66;59.73
64632;BME280;58358;50.936;0.246;2022-07-22T05:37:14;101473.96;;;14.52;61.69
64632;BME280;58358;50.936;0.246;2022-07-22T05:39:40;101471.71;;;14.51;62.91
64632;BME280;58358;50.936;0.246;2022-07-22T05:42:06;101472.25;;;15.47;60.61
64632;BME280;58358;50.936;0.246;2022-07-22T05:44:31;101472.26;;;14.87;61.27
64632;BME280;58358;50.936;0.246;2022-07-22T05:46:57;101471.79;;;15.45;60.50
64632;BME280;58358;50.936;0.246;2022-07-22T05:49:23;101475.37;;;15.27;60.89
64632;BME280;58358;50.936;0.246;2022-07-22T05:51:48;101481.45;;;14.75;61.59
64632;BME280;58358;50.936;0.246;2022-07-22T05:54:14;101480.80;;;14.60;62.28
64632;BME280;58358;50.936;0.246;2022-07-22T05:56:40;101479.27;;;14.92;61.48
64632;BME280;58358;50.936;0.246;2022-07-22T05:59:06;101479.20;;;15.55;59.81
64632;BME280;58358;50.936;0.246;2022-07-22T06:01:31;101478.85;;;16.02;58.86
64632;BME280;58358;50.936;0.246;2022-07-22T06:03:57;101475.61;;;15.72;59.91
64632;BME280;58358;50.936;0.246;2022-07-22T06:06:23;101471.28;;;15.52;60.79
64632;BME280;58358;50.936;0.246;2022-07-22T06:08:48;101473.79;;;15.82;59.66
64632;BME280;58358;50.936;0.246;2022-07-22T06:11:14;101473.19;;;15.12;61.02
64632;BME280;58358;50.936;0.246;2022-07-22T06:13:40;101471.10;;;14.72;63.01
64632;BME280;58358;50.936;0.246;2022-07-22T06:16:06;101470.78;;;15.64;61.31
64632;BME280;58358;50.936;0.246;2022-07-22T06:18:31;101470.21;;;16.10;59.78
64632;BME280;58358;50.936;0.246;2022-07-22T06:20:57;101468.94;;;15.89;60.34
64632;BME280;58358;50.936;0.246;2022-07-22T06:23:23;101470.56;;;15.23;61.98
64632;BME280;58358;50.936;0.246;2022-07-22T06:25:48;101475.63;;;16.44;59.64
64632;BME280;58358;50.936;0.246;2022-07-22T06:28:14;101471.39;;;16.21;59.39
64632;BME280;58358;50.936;0.246;2022-07-22T06:30:40;101476.97;;;16.76;58.71
64632;BME280;58358;50.936;0.246;2022-07-22T06:33:06;101473.07;;;16.80;58.22
64632;BME280;58358;50.936;0.246;2022-07-22T06:35:31;101465.84;;;17.26;57.00
64632;BME280;58358;50.936;0.246;2022-07-22T06:37:56;101461.29;;;16.92;58.02
64632;BME280;58358;50.936;0.246;2022-07-22T06:40:22;101464.47;;;16.53;58.67
64632;BME280;58358;50.936;0.246;2022-07-22T06:42:48;101461.50;;;16.23;59.99
64632;BME280;58358;50.936;0.246;2022-07-22T06:45:13;101454.71;;;15.68;60.97
64632;BME280;58358;50.936;0.246;2022-07-22T06:47:39;101454.08;;;15.87;61.82
64632;BME280;58358;50.936;0.246;2022-07-22T06:50:07;101460.96;;;16.68;59.54
64632;BME280;58358;50.936;0.246;2022-07-22T06:52:31;101466.22;;;16.87;58.79
64632;BME280;58358;50.936;0.246;2022-07-22T06:54:56;101476.24;;;16.03;59.74
64632;BME280;58358;50.936;0.246;2022-07-22T06:57:22;101471.55;;;16.85;57.83
64632;BME280;58358;50.936;0.246;2022-07-22T06:59:48;101471.99;;;17.16;57.49
64632;BME280;58358;50.936;0.246;2022-07-22T07:02:13;101473.89;;;15.62;61.76
64632;BME280;58358;50.936;0.246;2022-07-22T07:04:39;101469.67;;;15.70;61.89
64632;BME280;58358;50.936;0.246;2022-07-22T07:07:05;101474.49;;;16.52;60.04
64632;BME280;58358;50.936;0.246;2022-07-22T07:09:30;101465.40;;;16.98;58.56
64632;BME280;58358;50.936;0.246;2022-07-22T07:11:56;101467.09;;;17.15;56.90
64632;BME280;58358;50.936;0.246;2022-07-22T07:14:22;101468.90;;;16.85;57.92
64632;BME280;58358;50.936;0.246;2022-07-22T07:16:47;101469.90;;;16.83;58.34
64632;BME280;58358;50.936;0.246;2022-07-22T07:19:13;101465.63;;;17.09;56.93
64632;BME280;58358;50.936;0.246;2022-07-22T07:21:39;101458.11;;;17.40;56.37
64632;BME280;58358;50.936;0.246;2022-07-22T07:24:05;101453.48;;;17.34;56.37
64632;BME280;58358;50.936;0.246;2022-07-22T07:26:30;101455.11;;;18.24;54.49
64632;BME280;58358;50.936;0.246;2022-07-22T07:28:56;101458.22;;;18.02;55.34
64632;BME280;58358;50.936;0.246;2022-07-22T07:31:21;101463.10;;;17.49;56.11
64632;BME280;58358;50.936;0.246;2022-07-22T07:33:47;101465.01;;;17.85;54.08
64632;BME280;58358;50.936;0.246;2022-07-22T07:36:12;101460.36;;;18.16;53.45
64632;BME280;58358;50.936;0.246;2022-07-22T07:38:38;101460.56;;;18.20;52.63
64632;BME280;58358;50.936;0.246;2022-07-22T07:41:04;101454.58;;;18.16;53.13
64632;BME280;58358;50.936;0.246;2022-07-22T07:43:29;101453.99;;;17.15;54.61
64632;BME280;58358;50.936;0.246;2022-07-22T07:45:55;101460.61;;;17.41;54.94
64632;BME280;58358;50.936;0.246;2022-07-22T07:48:21;101456.22;;;17.09;55.87
64632;BME280;58358;50.936;0.246;2022-07-22T07:50:46;101455.70;;;17.80;54.16
64632;BME280;58358;50.936;0.246;2022-07-22T07:53:14;101453.86;;;18.12;53.73
64632;BME280;58358;50.936;0.246;2022-07-22T07:55:38;101455.46;;;18.26;53.13
64632;BME280;58358;50.936;0.246;2022-07-22T07:58:03;101456.87;;;17.58;53.53
64632;BME280;58358;50.936;0.246;2022-07-22T08:00:29;101459.19;;;18.22;52.52
64632;BME280;58358;50.936;0.246;2022-07-22T08:02:55;101451.34;;;18.22;52.23
64632;BME280;58358;50.936;0.246;2022-07-22T08:05:20;101447.78;;;17.82;52.78
64632;BME280;58358;50.936;0.246;2022-07-22T08:07:46;101446.42;;;18.00;52.13
64632;BME280;58358;50.936;0.246;2022-07-22T08:10:12;101447.40;;;18.78;50.71
64632;BME280;58358;50.936;0.246;2022-07-22T08:12:37;101445.52;;;17.85;52.20
64632;BME280;58358;50.936;0.246;2022-07-22T08:15:04;101438.67;;;18.15;52.14
64632;BME280;58358;50.936;0.246;2022-07-22T08:17:29;101434.96;;;17.35;53.80
64632;BME280;58358;50.936;0.246;2022-07-22T08:19:54;101432.87;;;17.34;54.18
64632;BME280;58358;50.936;0.246;2022-07-22T08:22:20;101427.69;;;17.38;54.93
64632;BME280;58358;50.936;0.246;2022-07-22T08:24:46;101435.11;;;16.97;55.71
64632;BME280;58358;50.936;0.246;2022-07-22T08:27:11;101438.26;;;16.21;56.73
64632;BME280;58358;50.936;0.246;2022-07-22T08:29:37;101438.50;;;16.92;56.15
64632;BME280;58358;50.936;0.246;2022-07-22T08:32:03;101440.71;;;17.15;54.87
64632;BME280;58358;50.936;0.246;2022-07-22T08:34:28;101443.93;;;18.39;52.24
64632;BME280;58358;50.936;0.246;2022-07-22T08:36:54;101443.94;;;19.44;50.00
64632;BME280;58358;50.936;0.246;2022-07-22T08:39:20;101441.27;;;18.98;50.04
64632;BME280;58358;50.936;0.246;2022-07-22T08:41:45;101441.70;;;18.99;49.62
64632;BME280;58358;50.936;0.246;2022-07-22T08:44:11;101439.29;;;20.07;48.28
64632;BME280;58358;50.936;0.246;2022-07-22T08:46:37;101435.72;;;19.07;48.92
64632;BME280;58358;50.936;0.246;2022-07-22T08:49:03;101434.52;;;18.85;49.61
64632;BME280;58358;50.936;0.246;2022-07-22T08:51:28;101432.49;;;19.38;48.79
64632;BME280;58358;50.936;0.246;2022-07-22T08:53:53;101439.17;;;19.41;50.13
64632;BME280;58358;50.936;0.246;2022-07-22T08:56:19;101434.00;;;18.53;49.72
64632;BME280;58358;50.936;0.246;2022-07-22T08:58:45;101427.70;;;18.90;50.02
64632;BME280;58358;50.936;0.246;2022-07-22T09:01:12;101431.67;;;18.33;51.87
64632;BME280;58358;50.936;0.246;2022-07-22T09:03:45;101433.22;;;18.20;51.95
64632;BME280;58358;50.936;0.246;2022-07-22T09:06:02;101429.76;;;18.45;51.46
64632;BME280;58358;50.936;0.246;2022-07-22T09:08:27;101429.91;;;18.19;52.23
64632;BME280;58358;50.936;0.246;2022-07-22T09:10:53;101426.35;;;19.06;50.84
64632;BME280;58358;50.936;0.246;2022-07-22T09:13:18;101422.52;;;19.23;49.46
64632;BME280;58358;50.936;0.246;2022-07-22T09:15:47;101422.64;;;18.47;49.43
64632;BME280;58358;50.936;0.246;2022-07-22T09:18:10;101433.15;;;19.81;47.43
64632;BME280;58358;50.936;0.246;2022-07-22T09:20:37;101435.99;;;19.07;48.47
64632;BME280;58358;50.936;0.246;2022-07-22T09:23:02;101435.22;;;19.05;49.01
64632;BME280;58358;50.936;0.246;2022-07-22T09:25:29;101436.51;;;19.39;47.40
64632;BME280;58358;50.936;0.246;2022-07-22T09:27:54;101441.65;;;20.46;44.24
64632;BME280;58358;50.936;0.246;2022-07-22T09:30:19;101438.18;;;19.20;47.16
64632;BME280;58358;50.936;0.246;2022-07-22T09:32:44;101433.77;;;19.34;47.97
64632;BME280;58358;50.936;0.246;2022-07-22T09:35:10;101434.86;;;19.33;47.14
64632;BME280;58358;50.936;0.246;2022-07-22T09:37:35;101436.80;;;19.97;46.49
64632;BME280;58358;50.936;0.246;2022-07-22T09:40:12;101436.46;;;19.88;46.92
64632;BME280;58358;50.936;0.246;2022-07-22T09:42:26;101430.38;;;20.48;44.93
64632;BME280;58358;50.936;0.246;2022-07-22T09:44:51;101430.04;;;20.68;45.42
64632;BME280;58358;50.936;0.246;2022-07-22T09:47:27;101428.64;;;21.66;42.58
64632;BME280;58358;50.936;0.246;2022-07-22T09:49:42;101424.20;;;20.95;43.44
64632;BME280;58358;50.936;0.246;2022-07-22T09:52:08;101423.78;;;19.47;47.28
64632;BME280;58358;50.936;0.246;2022-07-22T09:54:33;101420.89;;;20.76;45.89
64632;BME280;58358;50.936;0.246;2022-07-22T09:56:59;101416.60;;;18.78;48.29
64632;BME280;58358;50.936;0.246;2022-07-22T09:59:25;101413.70;;;18.63;49.08
64632;BME280;58358;50.936;0.246;2022-07-22T10:01:54;101417.77;;;18.38;50.18
64632;BME280;58358;50.936;0.246;2022-07-22T10:04:20;101409.75;;;19.05;47.56
64632;BME280;58358;50.936;0.246;2022-07-22T10:06:43;101416.12;;;19.89;47.13
64632;BME280;58358;50.936;0.246;2022-07-22T10:09:08;101411.45;;;19.47;46.28
64632;BME280;58358;50.936;0.246;2022-07-22T10:11:33;101415.63;;;20.86;44.68
64632;BME280;58358;50.936;0.246;2022-07-22T10:13:59;101414.44;;;20.31;44.82
64632;BME280;58358;50.936;0.246;2022-07-22T10:16:24;101413.02;;;20.64;44.39
64632;BME280;58358;50.936;0.246;2022-07-22T10:18:50;101413.00;;;19.81;45.83
64632;BME280;58358;50.936;0.246;2022-07-22T10:21:16;101404.93;;;20.77;43.29
64632;BME280;58358;50.936;0.246;2022-07-22T10:26:07;101395.71;;;19.87;43.76
64632;BME280;58358;50.936;0.246;2022-07-22T10:28:34;101381.18;;;22.06;41.39
64632;BME280;58358;50.936;0.246;2022-07-22T10:31:16;101372.44;;;21.04;43.01
64632;BME280;58358;50.936;0.246;2022-07-22T10:33:29;101379.46;;;21.83;42.11
64632;BME280;58358;50.936;0.246;2022-07-22T10:35:57;101380.78;;;21.20;41.40
64632;BME280;58358;50.936;0.246;2022-07-22T10:38:14;101388.62;;;20.24;43.84
64632;BME280;58358;50.936;0.246;2022-07-22T10:40:48;101390.10;;;19.49;45.89
64632;BME280;58358;50.936;0.246;2022-07-22T10:43:09;101384.97;;;19.63;45.67
64632;BME280;58358;50.936;0.246;2022-07-22T10:45:33;101394.40;;;20.00;45.09
64632;BME280;58358;50.936;0.246;2022-07-22T10:47:58;101392.03;;;20.35;43.83
64632;BME280;58358;50.936;0.246;2022-07-22T10:50:39;101389.12;;;19.98;43.99
64632;BME280;58358;50.936;0.246;2022-07-22T10:52:48;101389.05;;;20.16;43.13
64632;BME280;58358;50.936;0.246;2022-07-22T10:55:18;101387.01;;;20.14;42.33
64632;BME280;58358;50.936;0.246;2022-07-22T10:57:38;101378.21;;;21.30;41.90
64632;BME280;58358;50.936;0.246;2022-07-22T11:00:06;101383.96;;;21.52;42.19
64632;BME280;58358;50.936;0.246;2022-07-22T11:02:30;101390.11;;;20.97;42.01
64632;BME280;58358;50.936;0.246;2022-07-22T11:04:55;101392.05;;;21.24;41.81
64632;BME280;58358;50.936;0.246;2022-07-22T11:07:21;101396.57;;;20.12;43.82
64632;BME280;58358;50.936;0.246;2022-07-22T11:09:46;101391.79;;;20.59;43.36
64632;BME280;58358;50.936;0.246;2022-07-22T11:12:12;101387.08;;;21.28;42.05
64632;BME280;58358;50.936;0.246;2022-07-22T11:14:38;101388.81;;;19.47;44.96
64632;BME280;58358;50.936;0.246;2022-07-22T11:17:06;101388.24;;;20.41;42.85
64632;BME280;58358;50.936;0.246;2022-07-22T11:19:30;101386.66;;;20.93;41.83
64632;BME280;58358;50.936;0.246;2022-07-22T11:21:57;101387.63;;;21.22;41.72
64632;BME280;58358;50.936;0.246;2022-07-22T11:24:20;101384.63;;;19.94;43.53
64632;BME280;58358;50.936;0.246;2022-07-22T11:26:48;101379.79;;;22.04;40.54
64632;BME280;58358;50.936;0.246;2022-07-22T11:29:16;101372.74;;;21.30;41.42
64632;BME280;58358;50.936;0.246;2022-07-22T11:31:38;101369.37;;;21.34;40.41
64632;BME280;58358;50.936;0.246;2022-07-22T11:34:08;101371.07;;;20.09;43.66
64632;BME280;58358;50.936;0.246;2022-07-22T11:36:32;101372.38;;;20.83;42.63
64632;BME280;58358;50.936;0.246;2022-07-22T11:38:54;101379.30;;;20.47;42.91
64632;BME280;58358;50.936;0.246;2022-07-22T11:41:19;101383.50;;;19.94;44.46
64632;BME280;58358;50.936;0.246;2022-07-22T11:43:49;101382.58;;;20.66;43.68
64632;BME280;58358;50.936;0.246;2022-07-22T11:46:10;101378.52;;;19.79;44.72
64632;BME280;58358;50.936;0.246;2022-07-22T11:48:36;101369.72;;;20.38;43.22
64632;BME280;58358;50.936;0.246;2022-07-22T11:51:03;101369.55;;;20.31;44.01
64632;BME280;58358;50.936;0.246;2022-07-22T11:53:27;101370.02;;;20.26;45.46
64632;BME280;58358;50.936;0.246;2022-07-22T11:55:56;101367.86;;;20.34;46.65
64632;BME280;58358;50.936;0.246;2022-07-22T11:58:36;101358.17;;;20.47;47.04
64632;BME280;58358;50.936;0.246;2022-07-22T12:00:44;101360.09;;;18.69;52.72
64632;BME280;58358;50.936;0.246;2022-07-22T12:03:10;101361.80;;;18.10;51.95
64632;BME280;58358;50.936;0.246;2022-07-22T12:05:35;101372.62;;;19.51;51.01
64632;BME280;58358;50.936;0.246;2022-07-22T12:08:01;101371.29;;;21.01;47.01
64632;BME280;58358;50.936;0.246;2022-07-22T12:10:26;101368.96;;;21.02;48.41
64632;BME280;58358;50.936;0.246;2022-07-22T12:12:52;101368.33;;;20.43;50.24
64632;BME280;58358;50.936;0.246;2022-07-22T12:15:18;101370.88;;;21.30;47.17
64632;BME280;58358;50.936;0.246;2022-07-22T12:17:43;101369.66;;;21.71;46.04
64632;BME280;58358;50.936;0.246;2022-07-22T12:20:11;101366.85;;;20.68;48.02
64632;BME280;58358;50.936;0.246;2022-07-22T12:22:44;101363.94;;;21.39;47.05
64632;BME280;58358;50.936;0.246;2022-07-22T12:25:01;101356.02;;;22.39;44.09
64632;BME280;58358;50.936;0.246;2022-07-22T12:27:25;101348.37;;;22.47;44.11
64632;BME280;58358;50.936;0.246;2022-07-22T12:29:51;101347.54;;;22.48;44.64
64632;BME280;58358;50.936;0.246;2022-07-22T12:32:24;101345.26;;;22.30;44.78
64632;BME280;58358;50.936;0.246;2022-07-22T12:34:44;101348.31;;;21.72;44.45
64632;BME280;58358;50.936;0.246;2022-07-22T12:37:13;101347.50;;;20.15;46.84
64632;BME280;58358;50.936;0.246;2022-07-22T12:39:33;101344.63;;;21.36;44.63
64632;BME280;58358;50.936;0.246;2022-07-22T12:41:59;101342.41;;;20.54;46.13
64632;BME280;58358;50.936;0.246;2022-07-22T12:44:26;101342.64;;;20.68;44.19